OOTVZ EDHL-ZZZZ
Flight info
| Callsign | OOTVZ |
|---|---|
| Flight time | N/A |
| Altitude | |
| Route | VFR |
| Aircraft | C172 |
Departure
| Time | 2026-04-22 20:57 |
|---|---|
| Airport | Lübeck Blankensee Airport (EDHL) |
Arrival
| Time | N/A |
|---|---|
| Airport | ZZZZ |
| Time | Latitude | Longitude | Altitude | Speed | Heading |
|---|---|---|---|---|---|
| 2026-04-22 20:50 | 53.80468 | 10.70286 | 56 ft | 0 kts | 342° |
| 2026-04-22 20:52 | 53.80469 | 10.70281 | 56 ft | 2 kts | 246° |
| 2026-04-22 20:53 | 53.80463 | 10.70293 | 53 ft | 4 kts | 117° |
| 2026-04-22 20:53 | 53.80437 | 10.70386 | 56 ft | 14 kts | 77° |
| 2026-04-22 20:53 | 53.80474 | 10.70544 | 56 ft | 14 kts | 83° |
| 2026-04-22 20:53 | 53.80497 | 10.70700 | 55 ft | 13 kts | 71° |
| 2026-04-22 20:54 | 53.80531 | 10.70839 | 56 ft | 12 kts | 76° |
| 2026-04-22 20:54 | 53.80550 | 10.70974 | 56 ft | 12 kts | 72° |
| 2026-04-22 20:54 | 53.80578 | 10.71122 | 53 ft | 15 kts | 70° |
| 2026-04-22 20:54 | 53.80617 | 10.71319 | 57 ft | 20 kts | 72° |
| 2026-04-22 20:55 | 53.80660 | 10.71565 | 57 ft | 23 kts | 82° |
| 2026-04-22 20:55 | 53.80614 | 10.71802 | 55 ft | 15 kts | 116° |
| 2026-04-22 20:55 | 53.80609 | 10.71821 | 57 ft | 0 kts | 116° |
| 2026-04-22 20:56 | 53.80592 | 10.71883 | 56 ft | 17 kts | 111° |
| 2026-04-22 20:56 | 53.80519 | 10.71867 | 56 ft | 20 kts | 256° |
| 2026-04-22 20:57 | 53.80426 | 10.71380 | 87 ft | 65 kts | 251° |
| 2026-04-22 20:57 | 53.80260 | 10.70544 | 256 ft | 88 kts | 253° |
| 2026-04-22 20:57 | 53.80074 | 10.69446 | 477 ft | 104 kts | 256° |
| 2026-04-22 20:57 | 53.79877 | 10.68251 | 768 ft | 109 kts | 258° |
| 2026-04-22 20:58 | 53.79666 | 10.66970 | 1011 ft | 118 kts | 259° |
| 2026-04-22 20:58 | 53.79440 | 10.65581 | 1234 ft | 127 kts | 260° |
| 2026-04-22 20:58 | 53.79195 | 10.64006 | 1126 ft | 148 kts | 260° |
| 2026-04-22 20:58 | 53.78852 | 10.62297 | 1007 ft | 160 kts | 243° |
| 2026-04-22 20:59 | 53.77916 | 10.61252 | 985 ft | 171 kts | 198° |
| 2026-04-22 20:59 | 53.76716 | 10.61324 | 999 ft | 174 kts | 177° |
| 2026-04-22 20:59 | 53.75512 | 10.61525 | 1009 ft | 174 kts | 179° |
| 2026-04-22 20:59 | 53.74331 | 10.61857 | 1005 ft | 168 kts | 172° |
| 2026-04-22 21:00 | 53.73204 | 10.62253 | 998 ft | 163 kts | 172° |